Time;durP1;ratioP1;P1;durP2;ratioP2;P2;SDS_P1;SDS_P2;PMS_P1;PMS_P2;Temp;Humidity;BMP_temperature;BMP_pressure;BME280_temperature;BME280_humidity;BME280_pressure;Samples;Min_cycle;Max_cycle;Signal;HPM_P1;HPM_P2
2023/06/25 00:02:23;;;;;;;;;;;;;;;24.42;66.17;100552.41;7396999;19;1831;-50
2023/06/25 00:04:54;;;;;;;;;;;;;;;24.40;66.03;100549.03;7398038;19;1353;-51
2023/06/25 00:07:22;;;;;;;;;;;;;;;24.42;66.12;100555.94;7397078;19;1451;-51
2023/06/25 00:09:54;;;;;;;;;;;;;;;24.40;65.92;100560.69;7397186;19;1804;-52
2023/06/25 00:12:23;;;;;;;;;;;;;;;24.34;66.47;100563.25;7396288;19;1667;-52
2023/06/25 00:14:51;;;;;;;;;;;;;;;24.42;66.20;100563.22;7397777;19;1380;-51
2023/06/25 00:17:21;;;;;;;;;;;;;;;24.31;66.18;100550.94;7397740;19;1330;-51
2023/06/25 00:19:49;;;;;;;;;;;;;;;24.34;66.47;100558.69;7399028;19;1059;-51
2023/06/25 00:22:20;;;;;;;;;;;;;;;24.40;66.12;100570.66;7397573;19;1853;-51
2023/06/25 00:24:48;;;;;;;;;;;;;;;24.42;65.87;100555.09;7396250;19;1882;-52
2023/06/25 00:27:16;;;;;;;;;;;;;;;24.37;65.96;100555.66;7396560;19;1499;-52
2023/06/25 00:29:45;;;;;;;;;;;;;;;24.40;66.10;100565.25;7397817;19;1690;-52
2023/06/25 00:32:15;;;;;;;;;;;;;;;24.37;66.00;100552.06;7397931;19;1801;-52
2023/06/25 00:34:44;;;;;;;;;;;;;;;24.37;66.13;100562.88;7398707;19;1752;-51
2023/06/25 00:37:18;;;;;;;;;;;;;;;24.36;66.15;100569.31;7403716;19;1318;-52
2023/06/25 00:39:50;;;;;;;;;;;;;;;24.36;66.08;100564.75;7404232;19;1466;-51
2023/06/25 00:42:19;;;;;;;;;;;;;;;24.33;66.30;100566.97;7403193;19;1837;-53
2023/06/25 00:44:47;;;;;;;;;;;;;;;24.32;66.05;100563.44;7403260;19;1768;-51
2023/06/25 00:47:16;;;;;;;;;;;;;;;24.26;66.22;100579.50;7405018;19;1028;-52
2023/06/25 00:49:45;;;;;;;;;;;;;;;24.35;66.16;100573.91;7401736;19;1523;-51
2023/06/25 00:52:14;;;;;;;;;;;;;;;24.34;66.29;100593.00;7404481;19;1895;-51
2023/06/25 00:54:43;;;;;;;;;;;;;;;24.25;66.29;100584.06;7403789;19;1443;-51
2023/06/25 00:57:15;;;;;;;;;;;;;;;24.34;66.15;100628.13;7404463;19;1452;-52
2023/06/25 00:59:44;;;;;;;;;;;;;;;24.37;66.01;100662.88;7404071;19;1475;-52
2023/06/25 01:02:17;;;;;;;;;;;;;;;24.36;66.34;100678.28;7402908;19;1839;-51
2023/06/25 01:04:53;;;;;;;;;;;;;;;24.35;66.30;100681.13;7402815;19;1452;-51
2023/06/25 01:07:24;;;;;;;;;;;;;;;24.34;66.22;100695.69;7402792;19;1396;-52
2023/06/25 01:09:53;;;;;;;;;;;;;;;24.34;66.43;100717.31;7402441;19;1396;-51
2023/06/25 01:12:24;;;;;;;;;;;;;;;24.26;66.50;100720.84;7402656;19;1807;-51
2023/06/25 01:14:52;;;;;;;;;;;;;;;24.37;66.38;100711.53;7404673;19;1666;-52
2023/06/25 01:17:21;;;;;;;;;;;;;;;24.33;66.17;100696.69;7404131;19;1479;-52
2023/06/25 01:19:49;;;;;;;;;;;;;;;24.33;66.36;100702.09;7404225;19;1040;-51
2023/06/25 01:22:18;;;;;;;;;;;;;;;24.35;66.30;100718.97;7403174;19;1943;-52
2023/06/25 01:24:49;;;;;;;;;;;;;;;24.39;66.03;100720.31;7403030;19;1605;-52
2023/06/25 01:27:21;;;;;;;;;;;;;;;24.35;66.13;100708.16;7402768;19;1690;-51
2023/06/25 01:29:50;;;;;;;;;;;;;;;24.34;66.07;100714.59;7402088;19;1421;-52
2023/06/25 01:32:18;;;;;;;;;;;;;;;24.33;66.39;100715.59;7402927;19;1289;-51
2023/06/25 01:34:47;;;;;;;;;;;;;;;24.35;66.23;100713.56;7403132;19;1671;-51
2023/06/25 01:37:18;;;;;;;;;;;;;;;24.33;66.27;100711.06;7402575;19;1839;-52
2023/06/25 01:39:49;;;;;;;;;;;;;;;24.38;66.01;100713.25;7401302;19;1341;-52
2023/06/25 01:42:17;;;;;;;;;;;;;;;24.35;66.20;100694.66;7401197;19;1833;-51
2023/06/25 01:44:45;;;;;;;;;;;;;;;24.39;66.26;100709.50;7401380;19;1399;-52
2023/06/25 01:47:13;;;;;;;;;;;;;;;24.36;66.03;100734.19;7403347;19;1058;-52
2023/06/25 01:49:42;;;;;;;;;;;;;;;24.31;66.16;100696.00;7402226;19;1443;-52
2023/06/25 01:52:10;;;;;;;;;;;;;;;24.32;66.08;100708.53;7402140;19;1475;-52
2023/06/25 01:54:39;;;;;;;;;;;;;;;24.36;66.07;100704.47;7399614;19;1401;-51
2023/06/25 01:57:10;;;;;;;;;;;;;;;24.40;66.03;100706.63;7402426;19;1341;-51
2023/06/25 01:59:38;;;;;;;;;;;;;;;24.36;66.03;100696.34;7401709;19;1361;-51
2023/06/25 02:02:07;;;;;;;;;;;;;;;24.37;66.25;100706.13;7401305;19;1859;-51
2023/06/25 02:04:35;;;;;;;;;;;;;;;24.30;66.24;100711.41;7401146;19;1742;-52
2023/06/25 02:07:03;;;;;;;;;;;;;;;24.34;66.38;100745.16;7400050;19;1328;-51
2023/06/25 02:09:32;;;;;;;;;;;;;;;24.34;66.16;100718.13;7401558;19;1387;-51
2023/06/25 02:12:00;;;;;;;;;;;;;;;24.36;66.10;100720.69;7401821;19;1352;-51
2023/06/25 02:14:31;;;;;;;;;;;;;;;24.34;66.40;100714.59;7402262;19;934;-51
2023/06/25 02:16:59;;;;;;;;;;;;;;;24.31;66.32;100726.59;7403223;19;946;-51
2023/06/25 02:19:28;;;;;;;;;;;;;;;24.38;66.16;100726.75;7401228;19;2022;-52
2023/06/25 02:21:56;;;;;;;;;;;;;;;24.30;66.21;100726.78;7401752;19;1598;-51
2023/06/25 02:24:24;;;;;;;;;;;;;;;24.38;66.17;100718.66;7400192;19;1857;-52
2023/06/25 02:26:52;;;;;;;;;;;;;;;24.40;66.12;100713.91;7401728;19;1697;-51
2023/06/25 02:29:21;;;;;;;;;;;;;;;24.37;66.11;100712.41;7401261;19;1463;-52
2023/06/25 02:31:52;;;;;;;;;;;;;;;24.34;66.13;100711.91;7400427;19;1864;-52
2023/06/25 02:34:20;;;;;;;;;;;;;;;24.31;66.06;100713.09;7399848;19;1375;-51
2023/06/25 02:36:48;;;;;;;;;;;;;;;24.34;66.01;100710.03;7399847;19;1702;-52
2023/06/25 02:39:17;;;;;;;;;;;;;;;24.31;66.32;100714.94;7400839;19;1745;-51
2023/06/25 02:41:45;;;;;;;;;;;;;;;24.35;66.05;100716.28;7400696;19;1474;-51
2023/06/25 02:44:13;;;;;;;;;;;;;;;23.78;66.49;100639.72;7398583;19;1852;-51
2023/06/25 02:46:42;;;;;;;;;;;;;;;24.34;66.34;100717.31;7402302;19;1008;-51
2023/06/25 02:49:13;;;;;;;;;;;;;;;24.39;66.12;100709.50;7399504;19;1942;-51
2023/06/25 02:51:41;;;;;;;;;;;;;;;24.37;66.15;100708.84;7400695;19;1405;-52
2023/06/25 02:54:09;;;;;;;;;;;;;;;24.36;66.22;100720.69;7399325;19;1353;-51
2023/06/25 02:56:37;;;;;;;;;;;;;;;24.31;66.27;100707.69;7399554;19;1714;-52
2023/06/25 02:59:06;;;;;;;;;;;;;;;24.34;66.16;100711.91;7396730;19;1727;-52
2023/06/25 03:01:34;;;;;;;;;;;;;;;24.31;66.27;100717.63;7400257;19;1902;-52
2023/06/25 03:04:02;;;;;;;;;;;;;;;24.34;66.17;100701.09;7399106;19;1850;-51
2023/06/25 03:06:33;;;;;;;;;;;;;;;24.29;66.39;100714.25;7399896;19;1758;-51
2023/06/25 03:09:02;;;;;;;;;;;;;;;24.29;66.31;100708.84;7400459;19;1729;-52
2023/06/25 03:11:30;;;;;;;;;;;;;;;24.34;66.10;100703.78;7401169;19;958;-51
2023/06/25 03:13:59;;;;;;;;;;;;;;;24.26;66.21;100699.25;7401059;19;1029;-52
2023/06/25 03:16:28;;;;;;;;;;;;;;;24.29;66.17;100698.91;7399458;19;1879;-52
2023/06/25 03:18:56;;;;;;;;;;;;;;;24.29;66.33;100692.63;7400213;19;1397;-52
2023/06/25 03:21:24;;;;;;;;;;;;;;;24.32;66.45;100689.59;7398618;19;1348;-52
2023/06/25 03:23:55;;;;;;;;;;;;;;;24.32;65.94;100687.75;7398602;19;1826;-51
2023/06/25 03:26:24;;;;;;;;;;;;;;;24.33;66.37;100699.38;7399347;19;1951;-51
2023/06/25 03:28:53;;;;;;;;;;;;;;;24.41;66.02;100696.66;7399152;19;1952;-52
2023/06/25 03:31:21;;;;;;;;;;;;;;;24.36;66.28;100699.88;7399273;19;1464;-52
2023/06/25 03:33:50;;;;;;;;;;;;;;;24.32;66.41;100693.16;7399674;19;1797;-52
2023/06/25 03:36:18;;;;;;;;;;;;;;;24.32;66.09;100687.75;7399048;19;1636;-52
2023/06/25 03:38:46;;;;;;;;;;;;;;;24.36;66.12;100686.38;7397876;19;1337;-51
2023/06/25 03:41:17;;;;;;;;;;;;;;;24.38;66.03;100680.81;7397276;19;1857;-52
2023/06/25 03:43:46;;;;;;;;;;;;;;;24.37;66.15;100687.22;7397391;19;1853;-52
2023/06/25 03:46:14;;;;;;;;;;;;;;;24.42;65.94;100671.34;7397493;19;3066;-51
2023/06/25 03:48:43;;;;;;;;;;;;;;;24.38;66.06;100680.81;7397155;19;1428;-52
2023/06/25 03:51:11;;;;;;;;;;;;;;;24.40;65.98;100679.59;7397313;19;1707;-52
2023/06/25 03:53:41;;;;;;;;;;;;;;;24.44;66.09;100673.88;7397034;19;1725;-52
2023/06/25 03:56:09;;;;;;;;;;;;;;;24.44;65.75;100673.88;7397250;19;1325;-52
2023/06/25 03:58:40;;;;;;;;;;;;;;;24.38;65.94;100667.28;7398038;19;1328;-51
2023/06/25 04:01:08;;;;;;;;;;;;;;;24.16;66.98;100676.97;7395426;19;1746;-52
2023/06/25 04:03:37;;;;;;;;;;;;;;;24.26;66.53;100672.22;7397576;19;1873;-52
2023/06/25 04:06:05;;;;;;;;;;;;;;;24.22;66.41;100682.53;7399564;19;1020;-52
2023/06/25 04:08:34;;;;;;;;;;;;;;;24.26;66.28;100665.97;7398756;19;1817;-52
2023/06/25 04:11:02;;;;;;;;;;;;;;;24.37;66.44;100674.56;7397708;19;1812;-52
2023/06/25 04:13:30;;;;;;;;;;;;;;;24.35;66.29;100660.38;7397916;19;1789;-52
2023/06/25 04:16:01;;;;;;;;;;;;;;;24.41;66.05;100665.09;7398518;19;1750;-52
2023/06/25 04:18:29;;;;;;;;;;;;;;;24.37;66.25;100660.19;7397554;19;1721;-51
2023/06/25 04:20:58;;;;;;;;;;;;;;;24.34;66.11;100668.66;7396210;19;1743;-52
2023/06/25 04:23:26;;;;;;;;;;;;;;;24.46;66.07;100661.84;7395216;19;1864;-52
2023/06/25 04:25:54;;;;;;;;;;;;;;;24.38;65.99;100668.13;7397812;19;1348;-52
2023/06/25 04:28:23;;;;;;;;;;;;;;;24.43;66.06;100675.72;7397508;19;1380;-52
2023/06/25 04:30:51;;;;;;;;;;;;;;;24.41;66.08;100665.09;7397766;19;1796;-52
2023/06/25 04:33:22;;;;;;;;;;;;;;;24.46;65.87;100667.25;7397692;19;1356;-51
2023/06/25 04:35:50;;;;;;;;;;;;;;;24.43;65.95;100667.59;7398529;19;1010;-51
2023/06/25 04:38:18;;;;;;;;;;;;;;;24.39;66.31;100672.53;7397221;19;1578;-52
2023/06/25 04:40:47;;;;;;;;;;;;;;;24.34;66.27;100666.78;7397002;19;1538;-52
2023/06/25 04:43:15;;;;;;;;;;;;;;;24.40;65.98;100674.19;7395946;19;1853;-52
2023/06/25 04:45:44;;;;;;;;;;;;;;;24.32;66.35;100668.81;7397885;19;1766;-51
2023/06/25 04:48:12;;;;;;;;;;;;;;;24.31;66.25;100688.78;7396752;19;1392;-52
2023/06/25 04:50:43;;;;;;;;;;;;;;;24.24;66.62;100658.03;7396397;19;1515;-52
2023/06/25 04:53:11;;;;;;;;;;;;;;;24.24;66.46;100679.66;7397749;19;1843;-52
2023/06/25 04:55:39;;;;;;;;;;;;;;;24.33;66.52;100685.88;7395207;19;1729;-52
2023/06/25 04:58:08;;;;;;;;;;;;;;;24.41;66.18;100685.84;7396620;19;1385;-52
2023/06/25 05:00:36;;;;;;;;;;;;;;;24.26;66.57;100677.63;7396404;19;1399;-51
2023/06/25 05:03:04;;;;;;;;;;;;;;;24.27;66.64;100676.59;7397856;19;1853;-51
2023/06/25 05:05:33;;;;;;;;;;;;;;;24.28;66.55;100691.81;7397007;19;1946;-52
2023/06/25 05:08:04;;;;;;;;;;;;;;;24.26;66.61;100684.91;7396796;19;1792;-52
2023/06/25 05:10:32;;;;;;;;;;;;;;;24.22;66.73;100687.94;7395599;19;1555;-51
2023/06/25 05:13:01;;;;;;;;;;;;;;;24.28;66.36;100680.16;7396173;19;1362;-52
2023/06/25 05:15:29;;;;;;;;;;;;;;;24.24;66.66;100678.81;7396099;19;1695;-51
2023/06/25 05:17:57;;;;;;;;;;;;;;;24.16;66.98;100680.50;7396129;19;1387;-51
2023/06/25 05:20:25;;;;;;;;;;;;;;;24.16;67.01;100674.28;7396861;19;1792;-52
2023/06/25 05:22:54;;;;;;;;;;;;;;;24.16;66.93;100688.63;7402893;19;1683;-52
2023/06/25 05:25:25;;;;;;;;;;;;;;;24.21;66.86;100686.25;7401056;19;1832;-51
2023/06/25 05:27:53;;;;;;;;;;;;;;;24.16;66.93;100675.09;7404294;19;1110;-52
2023/06/25 05:30:21;;;;;;;;;;;;;;;24.22;66.99;100674.41;7404168;19;1122;-52
2023/06/25 05:32:49;;;;;;;;;;;;;;;24.11;67.03;100680.16;7403197;19;1904;-51
2023/06/25 05:35:18;;;;;;;;;;;;;;;24.22;66.82;100682.53;7399798;19;1805;-51
2023/06/25 05:37:46;;;;;;;;;;;;;;;24.20;66.84;100681.03;7402747;19;1774;-51
2023/06/25 05:40:15;;;;;;;;;;;;;;;24.16;66.89;100676.97;7403527;19;1281;-52
2023/06/25 05:42:46;;;;;;;;;;;;;;;24.24;66.75;100678.81;7403794;19;969;-54
2023/06/25 05:45:14;;;;;;;;;;;;;;;24.34;66.29;100674.91;7399043;19;2140;-51
2023/06/25 05:47:42;;;;;;;;;;;;;;;24.24;66.93;100678.81;7401989;19;1361;-51
2023/06/25 05:50:11;;;;;;;;;;;;;;;24.22;67.02;100679.00;7401566;19;1344;-51
2023/06/25 05:52:39;;;;;;;;;;;;;;;24.20;67.07;100678.31;7402373;19;1506;-52
2023/06/25 05:55:08;;;;;;;;;;;;;;;24.24;66.93;100685.06;7401995;19;1059;-51
2023/06/25 05:57:36;;;;;;;;;;;;;;;24.30;66.95;100680.84;7403110;19;1934;-52
2023/06/25 06:00:08;;;;;;;;;;;;;;;24.20;66.73;100679.16;7402183;19;1550;-51
2023/06/25 06:02:37;;;;;;;;;;;;;;;24.16;67.06;100676.97;7401474;19;1464;-52
2023/06/25 06:05:06;;;;;;;;;;;;;;;24.24;66.76;100695.88;7400665;19;1847;-51
2023/06/25 06:07:34;;;;;;;;;;;;;;;24.28;66.82;100688.28;7401681;19;1413;-52
2023/06/25 06:10:02;;;;;;;;;;;;;;;24.23;66.85;100672.56;7401288;19;1412;-51
2023/06/25 06:12:31;;;;;;;;;;;;;;;24.21;66.77;100691.66;7401095;19;1778;-51
2023/06/25 06:14:59;;;;;;;;;;;;;;;24.18;67.07;100689.28;7400865;19;1658;-52
2023/06/25 06:17:30;;;;;;;;;;;;;;;24.19;66.83;100682.88;7401826;19;2002;-51
2023/06/25 06:19:58;;;;;;;;;;;;;;;24.17;67.25;100690.31;7402198;19;1670;-52
2023/06/25 06:22:27;;;;;;;;;;;;;;;24.13;67.13;100686.28;7402620;19;1009;-51
2023/06/25 06:24:55;;;;;;;;;;;;;;;24.12;67.49;100691.84;7400698;19;2104;-51
2023/06/25 06:27:23;;;;;;;;;;;;;;;24.18;67.08;100685.75;7400928;19;1526;-51
2023/06/25 06:29:51;;;;;;;;;;;;;;;24.14;67.12;100684.41;7398524;19;1535;-51
2023/06/25 06:32:20;;;;;;;;;;;;;;;24.15;67.06;100684.25;7398028;19;1313;-52
2023/06/25 06:34:53;;;;;;;;;;;;;;;24.19;67.14;100691.00;7400549;19;1747;-51
2023/06/25 06:37:22;;;;;;;;;;;;;;;24.15;67.08;100692.34;7401412;19;1673;-51
2023/06/25 06:39:50;;;;;;;;;;;;;;;24.15;67.35;100695.06;7401075;19;1827;-51
2023/06/25 06:42:18;;;;;;;;;;;;;;;24.19;67.16;100703.63;7401444;19;1099;-52
2023/06/25 06:44:46;;;;;;;;;;;;;;;24.13;67.21;100688.09;7397213;19;1841;-52
2023/06/25 06:47:15;;;;;;;;;;;;;;;24.11;67.36;100685.56;7400711;19;1765;-52
2023/06/25 06:49:43;;;;;;;;;;;;;;;24.12;67.43;100692.69;7401744;19;961;-52
2023/06/25 06:52:15;;;;;;;;;;;;;;;24.16;67.36;100669.69;7400347;19;1632;-52
2023/06/25 06:54:43;;;;;;;;;;;;;;;24.20;66.93;100672.91;7399500;19;1804;-52
2023/06/25 06:57:11;;;;;;;;;;;;;;;24.19;67.23;100666.69;7400187;19;1802;-52
2023/06/25 06:59:40;;;;;;;;;;;;;;;24.15;67.34;100676.13;7401126;19;1720;-51
2023/06/25 07:02:08;;;;;;;;;;;;;;;24.18;67.13;100685.75;7400058;19;1358;-52
2023/06/25 07:04:37;;;;;;;;;;;;;;;24.18;67.05;100664.97;7398260;19;1853;-51
2023/06/25 07:07:05;;;;;;;;;;;;;;;24.17;67.08;100652.50;7396985;19;1718;-52
2023/06/25 07:09:36;;;;;;;;;;;;;;;24.18;67.24;100666.84;7398567;19;1705;-52
2023/06/25 07:12:08;;;;;;;;;;;;;;;24.11;67.52;100658.56;7396142;19;1498;-52
2023/06/25 07:14:39;;;;;;;;;;;;;;;24.16;67.18;100661.59;7399923;19;1443;-52
2023/06/25 07:17:07;;;;;;;;;;;;;;;24.15;67.08;100651.81;7401227;19;1101;-51
2023/06/25 07:19:35;;;;;;;;;;;;;;;24.14;67.43;100658.22;7399866;19;1465;-52
2023/06/25 07:22:04;;;;;;;;;;;;;;;24.15;67.21;100654.53;7399624;19;1522;-52
2023/06/25 07:24:32;;;;;;;;;;;;;;;24.16;67.24;100656.19;7397824;19;1854;-51
2023/06/25 07:27:03;;;;;;;;;;;;;;;24.19;67.15;100649.59;7399717;19;1431;-52
2023/06/25 07:29:31;;;;;;;;;;;;;;;24.19;67.18;100649.59;7399520;19;1478;-52
2023/06/25 07:31:59;;;;;;;;;;;;;;;24.16;66.93;100658.91;7399502;19;1745;-51
2023/06/25 07:34:27;;;;;;;;;;;;;;;24.21;67.27;100661.06;7399798;19;951;-51
2023/06/25 07:36:56;;;;;;;;;;;;;;;24.24;67.03;100657.22;7398830;19;1519;-52
2023/06/25 07:39:29;;;;;;;;;;;;;;;24.23;67.08;100656.34;7398524;19;2037;-51
2023/06/25 07:41:58;;;;;;;;;;;;;;;24.20;67.37;100657.53;7399351;19;1565;-52
2023/06/25 07:44:29;;;;;;;;;;;;;;;24.20;67.28;100649.44;7397223;19;1871;-51
2023/06/25 07:46:57;;;;;;;;;;;;;;;24.23;67.12;100640.13;7399488;19;1023;-51
2023/06/25 07:49:25;;;;;;;;;;;;;;;24.22;67.04;100655.50;7398259;19;1809;-51
2023/06/25 07:51:53;;;;;;;;;;;;;;;24.22;67.07;100644.69;7398677;19;1719;-51
2023/06/25 07:54:22;;;;;;;;;;;;;;;24.26;67.04;100645.19;7397242;19;1724;-51
2023/06/25 07:56:50;;;;;;;;;;;;;;;24.24;66.82;100643.69;7397747;19;1671;-52
2023/06/25 07:59:20;;;;;;;;;;;;;;;24.27;67.08;100641.47;7397330;19;1787;-51
2023/06/25 08:01:51;;;;;;;;;;;;;;;24.22;67.19;100638.44;7396963;19;1412;-51
2023/06/25 08:04:19;;;;;;;;;;;;;;;24.20;67.31;100632.38;7398334;19;1857;-51
2023/06/25 08:06:47;;;;;;;;;;;;;;;24.19;67.30;100631.53;7398121;19;1773;-51
2023/06/25 08:09:16;;;;;;;;;;;;;;;24.21;66.94;100624.09;7397698;19;1713;-51
2023/06/25 08:11:44;;;;;;;;;;;;;;;24.26;67.10;100631.69;7398029;19;1636;-51
2023/06/25 08:14:12;;;;;;;;;;;;;;;24.29;67.01;100619.69;7399387;19;998;-52
2023/06/25 08:16:41;;;;;;;;;;;;;;;24.36;66.79;100624.22;7398073;19;1954;-51
2023/06/25 08:19:11;;;;;;;;;;;;;;;24.31;66.79;100610.41;7397513;19;1855;-51
2023/06/25 08:21:40;;;;;;;;;;;;;;;24.27;67.09;100611.75;7398686;19;1788;-52
2023/06/25 08:24:08;;;;;;;;;;;;;;;24.31;66.79;100609.53;7397025;19;1671;-51
2023/06/25 08:26:37;;;;;;;;;;;;;;;24.31;66.84;100617.66;7395168;19;1855;-51
2023/06/25 08:29:05;;;;;;;;;;;;;;;24.28;67.03;100615.31;7397534;19;1423;-52
2023/06/25 08:31:33;;;;;;;;;;;;;;;24.30;66.88;100602.47;7397935;19;1973;-51
2023/06/25 08:34:01;;;;;;;;;;;;;;;24.31;67.10;100609.53;7397322;19;1329;-52
2023/06/25 08:36:32;;;;;;;;;;;;;;;24.35;66.77;100606.34;7398651;19;1031;-52
2023/06/25 08:39:01;;;;;;;;;;;;;;;24.34;66.96;100598.38;7397692;19;1538;-51
2023/06/25 08:41:30;;;;;;;;;;;;;;;24.29;66.88;100585.41;7397483;19;1883;-52
2023/06/25 08:43:58;;;;;;;;;;;;;;;24.32;66.80;100595.84;7393418;19;1035;-52
2023/06/25 08:46:27;;;;;;;;;;;;;;;24.31;66.98;100591.47;7396717;19;1911;-51
2023/06/25 08:48:57;;;;;;;;;;;;;;;24.29;67.17;100584.56;7395498;19;1578;-52
2023/06/25 08:51:26;;;;;;;;;;;;;;;24.25;67.09;100577.81;7393635;19;1435;-51
2023/06/25 08:53:57;;;;;;;;;;;;;;;24.26;67.23;100580.34;7395006;19;1659;-52
2023/06/25 08:56:26;;;;;;;;;;;;;;;24.25;67.25;100575.94;7396509;19;1419;-51
2023/06/25 08:58:54;;;;;;;;;;;;;;;24.26;67.07;100561.44;7404692;19;1289;-52
2023/06/25 09:01:23;;;;;;;;;;;;;;;24.29;67.09;100571.03;7403679;19;1474;-51
2023/06/25 09:03:51;;;;;;;;;;;;;;;24.29;66.91;100574.59;7404084;19;1680;-51
2023/06/25 09:06:19;;;;;;;;;;;;;;;24.31;66.80;100569.00;7401937;19;1839;-51
2023/06/25 09:08:47;;;;;;;;;;;;;;;24.31;66.91;100563.59;7405078;19;1054;-52
2023/06/25 09:11:18;;;;;;;;;;;;;;;24.32;67.01;100573.41;7404142;19;2099;-51
2023/06/25 09:13:47;;;;;;;;;;;;;;;24.31;66.73;100566.28;7403674;19;1554;-51
2023/06/25 09:16:15;;;;;;;;;;;;;;;24.38;66.70;100578.09;7402986;19;1903;-52
2023/06/25 09:18:44;;;;;;;;;;;;;;;24.29;67.06;100555.69;7404060;19;1805;-51
2023/06/25 09:21:12;;;;;;;;;;;;;;;24.30;66.86;100554.66;7403363;19;1650;-51
2023/06/25 09:23:40;;;;;;;;;;;;;;;24.27;67.00;100551.44;7403144;19;1703;-51
2023/06/25 09:26:10;;;;;;;;;;;;;;;24.28;67.03;100550.44;7399721;19;1853;-51
2023/06/25 09:28:48;;;;;;;;;;;;;;;24.31;66.94;100545.53;7403633;19;1789;-51
2023/06/25 09:31:17;;;;;;;;;;;;;;;24.27;67.16;100555.00;7403199;19;1364;-52
2023/06/25 09:33:51;;;;;;;;;;;;;;;24.29;67.08;100535.91;7403939;19;999;-51
2023/06/25 09:36:19;;;;;;;;;;;;;;;24.29;67.16;100538.59;7402484;19;2093;-51
2023/06/25 09:38:51;;;;;;;;;;;;;;;24.24;67.01;100543.72;7402634;19;1416;-50
2023/06/25 09:41:21;;;;;;;;;;;;;;;24.19;67.23;100534.28;7402250;19;1671;-52
2023/06/25 09:43:52;;;;;;;;;;;;;;;24.17;67.15;100528.22;7402663;19;974;-51
2023/06/25 09:46:21;;;;;;;;;;;;;;;24.19;67.38;100528.00;7400857;19;1840;-52
2023/06/25 09:48:51;;;;;;;;;;;;;;;24.17;67.57;100525.50;7402344;19;1554;-52
2023/06/25 09:51:21;;;;;;;;;;;;;;;24.18;67.26;100526.34;7400949;19;1809;-51
2023/06/25 09:53:52;;;;;;;;;;;;;;;24.18;67.24;100519.06;7401260;19;1635;-51
2023/06/25 09:56:22;;;;;;;;;;;;;;;24.20;67.56;100527.84;7398941;19;1713;-51
2023/06/25 09:58:53;;;;;;;;;;;;;;;24.18;67.53;100518.25;7401056;19;1706;-52
2023/06/25 10:01:21;;;;;;;;;;;;;;;24.18;67.45;100519.06;7402716;19;1320;-51
2023/06/25 10:03:49;;;;;;;;;;;;;;;24.22;67.28;100523.09;7402394;19;1329;-51
2023/06/25 10:06:18;;;;;;;;;;;;;;;24.21;67.35;100517.88;7399725;19;1846;-51
2023/06/25 10:08:46;;;;;;;;;;;;;;;24.26;67.26;100517.38;7402602;19;1411;-52
2023/06/25 10:11:16;;;;;;;;;;;;;;;24.26;67.12;100509.25;7403411;19;937;-52
2023/06/25 10:13:48;;;;;;;;;;;;;;;24.27;67.02;100506.34;7402560;19;1102;-51
2023/06/25 10:16:21;;;;;;;;;;;;;;;24.30;67.27;100507.88;7400930;19;1914;-51
2023/06/25 10:18:50;;;;;;;;;;;;;;;24.32;67.13;100505.84;7402111;19;1706;-51
2023/06/25 10:21:21;;;;;;;;;;;;;;;24.34;67.09;100518.16;7401339;19;1309;-52
2023/06/25 10:23:57;;;;;;;;;;;;;;;24.32;66.96;100508.53;7400808;19;1377;-51
2023/06/25 10:26:30;;;;;;;;;;;;;;;24.32;67.11;100513.94;7398178;19;1842;-52
2023/06/25 10:29:01;;;;;;;;;;;;;;;24.32;67.17;100509.38;7400689;19;1636;-51
2023/06/25 10:31:38;;;;;;;;;;;;;;;24.30;67.07;100495.19;7400015;19;1760;-52
2023/06/25 10:34:07;;;;;;;;;;;;;;;24.27;67.22;100506.34;7399869;19;1380;-52
2023/06/25 10:36:35;;;;;;;;;;;;;;;24.25;67.24;100503.00;7401249;19;1792;-51
2023/06/25 10:39:04;;;;;;;;;;;;;;;24.22;67.41;100495.25;7401146;19;1807;-51
2023/06/25 10:41:33;;;;;;;;;;;;;;;24.20;67.33;100495.41;7401472;19;1471;-51
2023/06/25 10:44:02;;;;;;;;;;;;;;;24.17;67.40;100501.19;7400973;19;1439;-51
2023/06/25 10:46:33;;;;;;;;;;;;;;;24.20;67.44;100487.31;7400384;19;1849;-51
2023/06/25 10:49:02;;;;;;;;;;;;;;;24.20;67.37;100476.50;7400867;19;1471;-51
2023/06/25 10:51:31;;;;;;;;;;;;;;;24.24;67.24;100476.16;7399781;19;1876;-51
2023/06/25 10:53:59;;;;;;;;;;;;;;;24.28;67.09;100474.78;7399216;19;1714;-51
2023/06/25 10:56:28;;;;;;;;;;;;;;;24.31;66.92;100469.88;7397433;19;1776;-51
2023/06/25 10:58:56;;;;;;;;;;;;;;;24.35;67.02;100470.34;7399180;19;1754;-51
2023/06/25 11:01:25;;;;;;;;;;;;;;;24.31;66.81;100460.91;7400531;19;1415;-52
2023/06/25 11:03:56;;;;;;;;;;;;;;;24.30;66.82;100459.25;7400454;19;1387;-52
2023/06/25 11:06:24;;;;;;;;;;;;;;;24.30;67.09;100461.94;7398630;19;1846;-52
2023/06/25 11:08:52;;;;;;;;;;;;;;;24.36;66.83;100466.63;7400685;19;1750;-52
2023/06/25 11:11:23;;;;;;;;;;;;;;;24.29;67.26;100435.94;7400675;19;1837;-51
2023/06/25 11:13:51;;;;;;;;;;;;;;;24.34;67.16;100444.34;7401121;19;1033;-52
2023/06/25 11:16:21;;;;;;;;;;;;;;;24.29;66.88;100434.09;7399120;19;1891;-52
2023/06/25 11:18:51;;;;;;;;;;;;;;;24.35;67.06;100443.31;7398223;19;1399;-51
2023/06/25 11:21:22;;;;;;;;;;;;;;;24.37;66.95;100441.28;7398641;19;1445;-52
2023/06/25 11:23:51;;;;;;;;;;;;;;;24.37;67.01;100422.34;7398750;19;1360;-51
2023/06/25 11:26:19;;;;;;;;;;;;;;;24.33;66.83;100421.03;7397184;19;1849;-52
2023/06/25 11:28:49;;;;;;;;;;;;;;;24.37;67.06;100409.72;7398275;19;1740;-51
2023/06/25 11:31:17;;;;;;;;;;;;;;;24.33;66.95;100394.00;7399598;19;1733;-52
2023/06/25 11:33:55;;;;;;;;;;;;;;;24.29;67.09;100393.56;7399903;19;1058;-51
2023/06/25 11:36:26;;;;;;;;;;;;;;;24.28;67.29;100383.75;7397809;19;1750;-51
2023/06/25 11:38:54;;;;;;;;;;;;;;;24.28;67.19;100383.75;7399126;19;1738;-52
2023/06/25 11:41:28;;;;;;;;;;;;;;;24.22;67.39;100371.78;7398224;19;1420;-52
2023/06/25 11:43:56;;;;;;;;;;;;;;;24.24;67.13;100370.78;7398791;19;1222;-52
2023/06/25 11:46:24;;;;;;;;;;;;;;;24.21;67.18;100372.84;7397820;19;1857;-51
2023/06/25 11:48:53;;;;;;;;;;;;;;;24.19;67.35;100364.06;7396944;19;1527;-52
2023/06/25 11:51:21;;;;;;;;;;;;;;;24.20;67.37;100370.31;7398032;19;1769;-52
2023/06/25 11:53:52;;;;;;;;;;;;;;;24.22;67.41;100379.91;7397009;19;1765;-51
2023/06/25 11:56:20;;;;;;;;;;;;;;;24.18;67.36;100362.38;7397082;19;1838;-51
2023/06/25 11:58:49;;;;;;;;;;;;;;;24.19;67.69;100361.38;7397747;19;1408;-51
2023/06/25 12:01:17;;;;;;;;;;;;;;;24.21;67.25;100351.22;7398257;19;1669;-52
2023/06/25 12:03:45;;;;;;;;;;;;;;;24.24;67.20;100352.72;7398866;19;1683;-52
2023/06/25 12:06:13;;;;;;;;;;;;;;;24.24;67.29;100346.47;7398794;19;1854;-52
2023/06/25 12:08:42;;;;;;;;;;;;;;;24.32;67.26;100351.81;7399177;19;1881;-52
2023/06/25 12:11:13;;;;;;;;;;;;;;;24.29;67.50;100341.34;7398098;19;1491;-51
2023/06/25 12:13:41;;;;;;;;;;;;;;;24.29;67.21;100352.16;7398232;19;1456;-51
2023/06/25 12:16:09;;;;;;;;;;;;;;;24.30;67.11;100341.19;7398745;19;1671;-51
2023/06/25 12:18:38;;;;;;;;;;;;;;;24.36;66.94;100339.63;7396546;19;1371;-51
2023/06/25 12:21:06;;;;;;;;;;;;;;;24.34;67.22;100338.97;7398055;19;1732;-51
2023/06/25 12:23:34;;;;;;;;;;;;;;;24.34;66.99;100338.97;7397763;19;1333;-51
2023/06/25 12:26:02;;;;;;;;;;;;;;;24.32;67.03;100336.44;7397598;19;1841;-52
2023/06/25 12:28:33;;;;;;;;;;;;;;;24.35;67.13;100321.69;7395071;19;1844;-51
2023/06/25 12:31:01;;;;;;;;;;;;;;;24.31;67.13;100321.25;7395057;19;1419;-51
2023/06/25 12:33:30;;;;;;;;;;;;;;;24.32;67.24;100325.63;7398822;19;1024;-52
2023/06/25 12:35:58;;;;;;;;;;;;;;;24.29;67.20;100315.19;7397287;19;1499;-51
2023/06/25 12:38:27;;;;;;;;;;;;;;;24.30;67.19;100321.44;7396930;19;1368;-52
2023/06/25 12:40:56;;;;;;;;;;;;;;;24.30;67.06;100316.84;7397390;19;1718;-51
2023/06/25 12:43:25;;;;;;;;;;;;;;;24.35;66.96;100324.41;7396851;19;1815;-52
2023/06/25 12:45:56;;;;;;;;;;;;;;;24.37;67.07;100308.84;7395948;19;2058;-52
2023/06/25 12:48:24;;;;;;;;;;;;;;;24.34;66.92;100298.41;7395544;19;1471;-52
2023/06/25 12:50:52;;;;;;;;;;;;;;;24.36;66.94;100293.69;7396565;19;1388;-51
2023/06/25 12:53:21;;;;;;;;;;;;;;;24.36;67.21;100304.47;7397174;19;1757;-51
2023/06/25 12:55:49;;;;;;;;;;;;;;;24.35;67.22;100287.44;7395714;19;1879;-51
2023/06/25 12:58:17;;;;;;;;;;;;;;;24.26;67.21;100290.38;7398474;19;1028;-51